createdAt,value
2016-05-19T00:00:44.588Z,12.84
2016-05-19T00:01:16.354Z,12.93
2016-05-19T00:02:13.325Z,12.84
2016-05-19T00:03:44.518Z,12.75
2016-05-19T00:04:13.393Z,12.9
2016-05-19T00:05:13.395Z,12.73
2016-05-19T00:06:13.273Z,12.69
2016-05-19T00:07:16.150Z,12.75
2016-05-19T00:08:13.450Z,12.76
2016-05-19T00:09:13.328Z,12.69
2016-05-19T00:10:13.331Z,12.66
2016-05-19T00:11:13.537Z,12.63
2016-05-19T00:12:13.555Z,12.62
2016-05-19T00:13:26.295Z,12.51
2016-05-19T00:14:26.329Z,12.54
2016-05-19T00:15:16.767Z,12.48
2016-05-19T00:16:32.834Z,12.53
2016-05-19T00:17:13.694Z,12.43
2016-05-19T00:18:13.650Z,12.43
2016-05-19T00:19:32.874Z,12.43
2016-05-19T00:20:40.579Z,12.35
2016-05-19T00:21:39.394Z,12.32
2016-05-19T00:22:26.460Z,12.36
2016-05-19T00:23:13.866Z,12.29
2016-05-19T00:24:15.181Z,12.3
2016-05-19T00:25:13.794Z,12.28
2016-05-19T00:26:13.827Z,12.17
2016-05-19T00:27:13.845Z,12.25
2016-05-19T00:28:13.848Z,12.25
2016-05-19T00:29:13.882Z,12.15
2016-05-19T00:30:13.979Z,12.02
2016-05-19T00:31:13.762Z,12.03
2016-05-19T00:32:26.736Z,12
2016-05-19T00:33:13.939Z,12
2016-05-19T00:34:13.676Z,12
2016-05-19T00:35:14.007Z,12.02
2016-05-19T00:36:13.870Z,11.97
2016-05-19T00:37:14.013Z,11.96
2016-05-19T00:38:14.375Z,11.89
2016-05-19T00:39:14.081Z,11.86
2016-05-19T00:40:14.115Z,11.88
2016-05-19T00:41:14.117Z,11.91
2016-05-19T00:42:26.858Z,11.8
2016-05-19T00:43:15.561Z,11.89
2016-05-19T00:44:14.172Z,11.8
2016-05-19T00:45:20.334Z,11.77
2016-05-19T00:46:14.037Z,11.76
2016-05-19T00:47:14.243Z,11.76
2016-05-19T00:48:14.246Z,11.68
2016-05-19T00:49:14.264Z,11.65
2016-05-19T00:50:14.297Z,11.74
2016-05-19T00:51:14.300Z,11.62
2016-05-19T00:52:14.319Z,11.55
2016-05-19T00:53:14.337Z,11.52
2016-05-19T00:54:14.355Z,11.51
2016-05-19T00:55:14.358Z,11.58
2016-05-19T00:56:26.974Z,11.52
2016-05-19T00:57:15.833Z,11.41
2016-05-19T00:58:14.413Z,11.43
2016-05-19T00:59:14.462Z,11.51
2016-05-19T01:00:14.466Z,11.38
2016-05-19T01:01:15.906Z,11.4
2016-05-19T01:02:27.254Z,11.35
2016-05-19T01:03:14.520Z,11.25
2016-05-19T01:04:14.539Z,11.25
2016-05-19T01:05:14.557Z,11.19
2016-05-19T01:06:17.623Z,11.2
2016-05-19T01:07:14.609Z,11.1
2016-05-19T01:08:20.740Z,11.1
2016-05-19T01:09:14.631Z,11.04
2016-05-19T01:10:16.086Z,11.07
2016-05-19T01:11:14.761Z,10.97
2016-05-19T01:12:14.544Z,11.01
2016-05-19T01:13:14.844Z,11
2016-05-19T01:14:14.581Z,11.01
2016-05-19T01:15:14.740Z,11
2016-05-19T01:16:17.821Z,11
2016-05-19T01:17:14.620Z,10.98
2016-05-19T01:18:34.001Z,10.89
2016-05-19T01:19:14.830Z,10.98
2016-05-19T01:20:40.521Z,10.95
2016-05-19T01:21:14.880Z,11
2016-05-19T01:23:14.778Z,10.95
2016-05-19T01:24:14.936Z,10.89
2016-05-19T01:25:14.782Z,10.95
2016-05-19T01:26:14.941Z,10.94
2016-05-19T01:27:14.663Z,10.89
2016-05-19T01:28:15.025Z,10.87
2016-05-19T01:29:27.765Z,10.82
2016-05-19T01:30:15.030Z,10.89
2016-05-19T01:31:14.877Z,10.87
2016-05-19T01:32:15.067Z,10.86
2016-05-19T01:33:16.351Z,10.77
2016-05-19T01:34:15.120Z,10.75
2016-05-19T01:35:15.122Z,10.75
2016-05-19T01:36:15.171Z,10.77
2016-05-19T01:37:15.268Z,10.77
2016-05-19T01:38:27.930Z,10.75
2016-05-19T01:39:15.259Z,10.77
2016-05-19T01:40:40.903Z,10.72
2016-05-19T01:41:15.091Z,10.72
2016-05-19T01:42:15.250Z,10.67
2016-05-19T01:43:15.269Z,10.65
2016-05-19T01:44:15.287Z,10.57
2016-05-19T01:45:15.290Z,10.55
2016-05-19T01:46:15.417Z,10.43
2016-05-19T01:47:15.342Z,10.39
2016-05-19T01:48:15.360Z,10.42
2016-05-19T01:49:15.394Z,10.34
2016-05-19T01:50:15.428Z,10.27
2016-05-19T01:51:27.839Z,10.2
2016-05-19T01:52:15.293Z,10.21
2016-05-19T01:54:18.033Z,10.09
2016-05-19T01:54:30.551Z,10.2
2016-05-19T01:55:30.741Z,10.05
2016-05-19T01:56:30.728Z,10.07
2016-05-19T01:57:30.730Z,10.12
2016-05-19T01:58:30.890Z,10.09
2016-05-19T01:59:30.627Z,10.09
2016-05-19T02:00:30.910Z,9.94
2016-05-19T02:01:30.835Z,10
2016-05-19T02:02:30.853Z,9.95
2016-05-19T02:03:30.856Z,9.91
2016-05-19T02:04:30.907Z,9.9
2016-05-19T02:05:30.893Z,9.94
2016-05-19T02:06:30.598Z,9.91
2016-05-19T02:07:33.976Z,9.95
2016-05-19T02:08:31.135Z,10
2016-05-19T02:09:43.670Z,9.99
2016-05-19T02:10:31.032Z,9.9
2016-05-19T02:11:30.847Z,9.92
2016-05-19T02:12:31.021Z,9.95
2016-05-19T02:13:31.087Z,10.03
2016-05-19T02:14:43.792Z,9.92
2016-05-19T02:15:31.092Z,9.99
2016-05-19T02:16:56.656Z,9.92
2016-05-19T02:17:30.988Z,10
2016-05-19T02:18:31.131Z,10.03
2016-05-19T02:19:40.805Z,10.06
2016-05-19T02:20:40.808Z,9.99
2016-05-19T02:21:40.842Z,9.97
2016-05-19T02:22:43.876Z,9.99
2016-05-19T02:23:53.597Z,10.05
2016-05-19T02:24:53.639Z,9.95
2016-05-19T02:25:40.736Z,9.94
2016-05-19T02:26:40.988Z,9.92
2016-05-19T02:28:12.210Z,9.92
2016-05-19T02:28:44.088Z,9.85
2016-05-19T02:29:40.966Z,9.82
2016-05-19T02:30:40.999Z,9.82
2016-05-19T02:31:41.002Z,9.81
2016-05-19T02:32:41.035Z,9.72
2016-05-19T02:33:43.945Z,9.73
2016-05-19T02:34:41.057Z,9.67
2016-05-19T02:35:41.076Z,9.63
2016-05-19T02:36:41.093Z,9.56
2016-05-19T02:37:41.112Z,9.64
2016-05-19T02:38:40.990Z,9.55
2016-05-19T02:39:41.289Z,9.64
2016-05-19T02:40:53.960Z,9.58
2016-05-19T02:41:41.256Z,9.62
2016-05-19T02:42:41.318Z,9.63
2016-05-19T02:43:41.287Z,9.51
2016-05-19T02:44:41.442Z,9.45
2016-05-19T02:45:41.500Z,9.44
2016-05-19T02:46:44.426Z,9.51
2016-05-19T02:47:41.411Z,9.36
2016-05-19T02:48:54.180Z,9.52
2016-05-19T02:50:00.917Z,9.36
2016-05-19T02:50:41.647Z,9.44
2016-05-19T02:51:41.375Z,9.42
2016-05-19T02:52:42.946Z,9.4
2016-05-19T02:53:41.734Z,9.27
2016-05-19T02:54:51.134Z,9.34
2016-05-19T02:55:41.765Z,9.29
2016-05-19T02:56:48.145Z,9.3
2016-05-19T02:57:41.821Z,9.16
2016-05-19T02:58:41.826Z,9.15
2016-05-19T02:59:41.862Z,9.16
2016-05-19T03:00:41.710Z,9.22
2016-05-19T03:01:41.885Z,9.18
2016-05-19T03:02:41.903Z,9.16
2016-05-19T03:03:41.767Z,9.16
2016-05-19T03:04:41.942Z,9.16
2016-05-19T03:05:41.961Z,9.18
2016-05-19T03:07:01.027Z,9.18
2016-05-19T03:07:54.732Z,9.24
2016-05-19T03:09:13.298Z,9.3
2016-05-19T03:10:01.222Z,9.31
2016-05-19T03:10:41.882Z,9.29
2016-05-19T03:11:42.103Z,9.31
2016-05-19T03:12:42.091Z,9.31
2016-05-19T03:13:43.531Z,9.31
2016-05-19T03:14:42.112Z,9.33
2016-05-19T03:15:41.974Z,9.4
2016-05-19T03:16:42.164Z,9.37
2016-05-19T03:17:54.917Z,9.39
2016-05-19T03:18:42.200Z,9.4
2016-05-19T03:20:13.500Z,9.47
2016-05-19T03:20:57.300Z,9.52
2016-05-19T03:21:57.474Z,9.52
2016-05-19T03:22:58.602Z,9.64
2016-05-19T03:24:06.917Z,9.58
2016-05-19T03:25:00.232Z,9.62
2016-05-19T03:26:09.938Z,9.62
2016-05-19T03:26:57.581Z,9.62
2016-05-19T03:28:10.178Z,9.55
2016-05-19T03:28:57.602Z,9.59
2016-05-19T03:29:57.621Z,9.58
2016-05-19T03:30:57.654Z,9.56
2016-05-19T03:32:00.673Z,9.55
2016-05-19T03:32:57.676Z,9.58
2016-05-19T03:33:57.695Z,9.66
2016-05-19T03:34:57.760Z,9.62
2016-05-19T03:35:57.715Z,9.7
2016-05-19T03:36:57.749Z,9.72
2016-05-19T03:38:10.861Z,9.7
2016-05-19T03:38:57.613Z,9.73
2016-05-19T03:40:29.072Z,9.72
2016-05-19T03:41:07.119Z,9.74
2016-05-19T03:42:07.294Z,9.73
2016-05-19T03:43:20.093Z,9.74
2016-05-19T03:44:07.330Z,9.73
2016-05-19T03:45:07.364Z,9.76
2016-05-19T03:46:07.366Z,9.85
2016-05-19T03:47:20.119Z,9.85
2016-05-19T03:48:07.388Z,9.87
2016-05-19T03:49:33.097Z,9.99
2016-05-19T03:50:20.175Z,9.95
2016-05-19T03:51:07.443Z,10.06
2016-05-19T03:52:07.461Z,10.07
2016-05-19T03:53:10.230Z,10.09
2016-05-19T03:54:19.936Z,10.17
2016-05-19T03:55:13.860Z,10.18
2016-05-19T03:56:26.756Z,10.15
2016-05-19T03:57:07.552Z,10.3
2016-05-19T03:58:07.587Z,10.31
2016-05-19T03:59:07.590Z,10.36
2016-05-19T04:00:07.607Z,10.38
2016-05-19T04:01:07.642Z,10.38
2016-05-19T04:02:20.378Z,10.49
2016-05-19T04:03:07.522Z,10.55
2016-05-19T04:04:07.696Z,10.64
2016-05-19T04:05:07.824Z,10.65
2016-05-19T04:06:07.733Z,10.67
2016-05-19T04:07:07.814Z,10.77
2016-05-19T04:08:07.879Z,10.69
2016-05-19T04:09:07.820Z,10.72
2016-05-19T04:10:07.807Z,10.8
2016-05-19T04:11:27.031Z,10.77
2016-05-19T04:12:07.828Z,10.87
2016-05-19T04:13:39.130Z,10.9
2016-05-19T04:14:17.473Z,10.94
2016-05-19T04:15:17.475Z,10.98
2016-05-19T04:16:17.353Z,10.95
2016-05-19T04:17:30.281Z,11.02
2016-05-19T04:18:30.283Z,11.08
2016-05-19T04:19:17.408Z,11.02
2016-05-19T04:20:17.614Z,11.12
2016-05-19T04:21:26.916Z,11.19
2016-05-19T04:22:17.635Z,11.19
2016-05-19T04:23:36.704Z,11.23
2016-05-19T04:24:26.816Z,11.23
2016-05-19T04:25:48.802Z,11.31
2016-05-19T04:26:17.709Z,11.25
2016-05-19T04:27:17.727Z,11.23
2016-05-19T04:28:17.746Z,11.34
2016-05-19T04:29:17.624Z,11.26
2016-05-19T04:30:17.626Z,11.33
2016-05-19T04:31:17.801Z,11.37
2016-05-19T04:32:30.571Z,11.44
2016-05-19T04:33:37.043Z,11.48
2016-05-19T04:34:20.871Z,11.48
2016-05-19T04:35:40.236Z,11.56
2016-05-19T04:37:01.707Z,11.56
2016-05-19T04:37:55.506Z,11.6
2016-05-19T04:38:56.057Z,11.58
2016-05-19T04:39:55.387Z,11.56
2016-05-19T04:40:55.327Z,11.56
2016-05-19T04:41:55.596Z,11.59
2016-05-19T04:42:55.598Z,11.58
2016-05-19T04:43:55.633Z,11.63
2016-05-19T04:44:55.650Z,11.65
2016-05-19T04:46:14.856Z,11.63
2016-05-19T04:47:30.612Z,11.73
2016-05-19T04:49:39.461Z,11.77
2016-05-19T04:50:39.495Z,11.76
2016-05-19T04:51:39.513Z,11.76
2016-05-19T04:52:42.657Z,11.78
2016-05-19T04:53:39.534Z,11.76
2016-05-19T04:54:39.678Z,11.86
2016-05-19T04:55:52.165Z,11.96
2016-05-19T04:56:42.463Z,11.97
2016-05-19T04:58:05.217Z,11.93
2016-05-19T04:58:45.907Z,12.08
2016-05-19T04:59:39.488Z,12.15
2016-05-19T05:00:39.522Z,12.21
2016-05-19T05:01:39.696Z,12.36
2016-05-19T05:02:39.730Z,12.35
2016-05-19T05:03:58.936Z,12.48
2016-05-19T05:04:52.485Z,12.65
2016-05-19T05:06:11.035Z,12.75
2016-05-19T05:07:05.476Z,12.83
2016-05-19T05:08:11.197Z,12.93
2016-05-19T05:09:12.512Z,13.05
2016-05-19T05:09:39.859Z,12.91
2016-05-19T05:11:52.629Z,13.05
2016-05-19T05:12:39.898Z,13.17
2016-05-19T05:13:59.448Z,13.13
2016-05-19T05:14:39.809Z,13.09
2016-05-19T05:15:39.781Z,13.08
2016-05-19T05:16:40.097Z,13.09
2016-05-19T05:17:39.833Z,13.05
2016-05-19T05:18:52.867Z,13.08
2016-05-19T05:19:40.026Z,13.09
2016-05-19T05:20:59.263Z,13.2
2016-05-19T05:21:40.078Z,13.27
2016-05-19T05:23:05.783Z,13.36
2016-05-19T05:23:40.443Z,13.46
2016-05-19T05:25:11.400Z,13.55
2016-05-19T05:26:21.058Z,13.64
2016-05-19T05:26:55.404Z,13.73
2016-05-19T05:27:55.266Z,13.76
2016-05-19T05:28:55.582Z,13.75
2016-05-19T05:29:55.460Z,13.87
2016-05-19T05:31:14.712Z,13.98
2016-05-19T05:31:55.496Z,13.97
2016-05-19T05:32:55.515Z,14.15
2016-05-19T05:33:55.392Z,14.25
2016-05-19T05:34:55.551Z,14.4
2016-05-19T05:35:55.569Z,14.58
2016-05-19T05:36:55.603Z,14.77
2016-05-19T05:37:55.637Z,14.94
2016-05-19T05:39:08.390Z,15.11
2016-05-19T05:39:55.768Z,15.18
2016-05-19T05:40:55.692Z,15.17
2016-05-19T05:41:55.710Z,15.27
2016-05-19T05:42:55.713Z,15.37
2016-05-19T05:43:55.732Z,15.37
2016-05-19T05:44:55.781Z,15.45
2016-05-19T05:45:55.784Z,15.43
2016-05-19T05:47:08.552Z,15.36
2016-05-19T05:47:55.836Z,15.51
2016-05-19T05:49:21.385Z,15.67
2016-05-19T05:50:11.373Z,15.72
2016-05-19T05:51:04.922Z,15.75
2016-05-19T05:52:05.222Z,15.7
2016-05-19T05:53:06.053Z,15.63
2016-05-19T05:54:05.492Z,15.67
2016-05-19T05:55:05.183Z,15.69
2016-05-19T05:56:04.873Z,15.72
2016-05-19T05:57:24.422Z,15.96
2016-05-19T05:58:05.300Z,15.92
2016-05-19T05:59:30.959Z,16.17
2016-05-19T06:00:14.946Z,16.25
2016-05-19T06:01:14.793Z,16.4
2016-05-19T06:02:17.858Z,16.41
2016-05-19T06:03:18.033Z,16.61
2016-05-19T06:04:27.894Z,16.57
2016-05-19T06:05:21.241Z,16.51
2016-05-19T06:06:15.166Z,16.61
2016-05-19T06:07:15.199Z,16.68
2016-05-19T06:08:14.984Z,16.72
2016-05-19T06:09:15.017Z,16.79
2016-05-19T06:10:14.989Z,16.83
2016-05-19T06:11:15.288Z,16.86
2016-05-19T06:12:27.775Z,16.89
2016-05-19T06:13:16.465Z,16.72
2016-05-19T06:14:15.265Z,16.5
2016-05-19T06:15:15.299Z,16.51
2016-05-19T06:16:15.302Z,16.54
2016-05-19T06:17:15.148Z,16.46
2016-05-19T06:18:15.354Z,16.5
2016-05-19T06:19:16.747Z,16.43
2016-05-19T06:20:15.250Z,16.49
2016-05-19T06:21:15.377Z,16.13
2016-05-19T06:22:15.428Z,16.03
2016-05-19T06:23:15.461Z,16.13
2016-05-19T06:24:34.655Z,16.08
2016-05-19T06:25:15.498Z,16.16
2016-05-19T06:26:41.175Z,16.16
2016-05-19T06:27:17.003Z,16.31
2016-05-19T06:29:34.636Z,16.21
2016-05-19T06:30:18.621Z,16.32
2016-05-19T06:31:18.638Z,16.29
2016-05-19T06:32:18.642Z,16.49
2016-05-19T06:33:21.863Z,16.46
2016-05-19T06:34:18.694Z,16.51
2016-05-19T06:35:18.760Z,16.58
2016-05-19T06:36:18.762Z,16.47
2016-05-19T06:37:18.796Z,16.59
2016-05-19T06:38:31.532Z,16.68
2016-05-19T06:39:18.676Z,16.64
2016-05-19T06:40:37.869Z,16.76
2016-05-19T06:41:18.713Z,16.8
2016-05-19T06:42:50.156Z,16.83
2016-05-19T06:43:18.890Z,16.79
2016-05-19T06:44:18.799Z,16.99
2016-05-19T06:45:19.005Z,17.13
2016-05-19T06:46:19.086Z,17.27
2016-05-19T06:47:18.995Z,17.38
2016-05-19T06:48:31.763Z,17.54
2016-05-19T06:49:19.047Z,17.42
2016-05-19T06:50:44.739Z,17.42
2016-05-19T06:51:28.708Z,17.53
2016-05-19T06:52:28.727Z,17.65
2016-05-19T06:53:41.998Z,17.68
2016-05-19T06:54:28.779Z,17.65
2016-05-19T06:55:28.797Z,17.52
2016-05-19T06:56:31.722Z,17.37
2016-05-19T06:57:41.650Z,17.59
2016-05-19T06:58:28.900Z,17.65
2016-05-19T06:59:28.745Z,17.76
2016-05-19T07:00:28.749Z,17.84
2016-05-19T07:01:28.985Z,18.11
2016-05-19T07:02:32.004Z,18.31
2016-05-19T07:03:29.006Z,18.55
2016-05-19T07:04:28.993Z,18.81
2016-05-19T07:05:29.027Z,19.12
2016-05-19T07:06:28.921Z,19.44
2016-05-19T07:07:29.095Z,19.7
2016-05-19T07:08:29.113Z,19.99
2016-05-19T07:09:30.569Z,20.12
2016-05-19T07:10:41.918Z,20.32
2016-05-19T07:11:29.215Z,20.36
2016-05-19T07:12:48.423Z,20.53
2016-05-19T07:13:43.551Z,20.44
2016-05-19T07:15:00.539Z,20.59
2016-05-19T07:15:44.369Z,20.74
2016-05-19T07:16:44.544Z,20.93
2016-05-19T07:17:45.984Z,21.07
2016-05-19T07:18:44.643Z,21.25
2016-05-19T07:19:57.380Z,21.56
2016-05-19T07:20:44.820Z,21.74
2016-05-19T07:21:44.495Z,22.03
2016-05-19T07:22:57.419Z,22.12
2016-05-19T07:23:44.703Z,22.33
2016-05-19T07:25:05.362Z,22.59
2016-05-19T07:25:44.772Z,22.98
2016-05-19T07:26:44.946Z,23.36
2016-05-19T07:27:44.652Z,23.77
2016-05-19T07:28:44.827Z,24.21
2016-05-19T07:29:44.876Z,24.79
2016-05-19T07:30:44.738Z,25.25
2016-05-19T07:31:44.616Z,25.7
2016-05-19T07:32:44.790Z,26.15
2016-05-19T07:33:44.965Z,27.26
2016-05-19T07:34:57.733Z,28.96
2016-05-19T07:35:45.049Z,29.47
2016-05-19T07:36:57.801Z,29.27
2016-05-19T07:37:47.960Z,28.78
2016-05-19T07:38:45.571Z,28.34
2016-05-19T07:39:44.996Z,27.72
2016-05-19T07:40:45.171Z,27.35
2016-05-19T07:41:45.032Z,27.22
2016-05-19T07:43:04.301Z,27.64
2016-05-19T07:43:48.117Z,28.33
2016-05-19T07:45:07.540Z,29.32
2016-05-19T07:45:48.373Z,30.46
2016-05-19T07:47:19.671Z,31.32
2016-05-19T07:47:49.939Z,31.81
2016-05-19T07:48:48.443Z,32.41
2016-05-19T07:50:01.196Z,33.12
2016-05-19T07:51:07.698Z,33.77
2016-05-19T07:52:19.920Z,34.28
2016-05-19T07:53:14.234Z,34.51
2016-05-19T07:53:48.956Z,34.97
2016-05-19T07:54:50.052Z,35
2016-05-19T07:55:48.664Z,35.45
2016-05-19T07:57:07.886Z,35.15
2016-05-19T07:57:48.717Z,34.97
2016-05-19T07:59:14.438Z,34.53
2016-05-19T07:59:48.628Z,34.62
2016-05-19T08:00:48.834Z,34.66
2016-05-19T08:01:48.868Z,34.58
2016-05-19T08:03:01.636Z,34.24
2016-05-19T08:04:01.513Z,34.14
2016-05-19T08:05:20.251Z,33.54
2016-05-19T08:06:14.691Z,33.04
2016-05-19T08:06:49.022Z,32.76
2016-05-19T08:07:48.932Z,32.3
2016-05-19T08:08:49.122Z,31.77
2016-05-19T08:09:52.171Z,31.25
2016-05-19T08:10:49.158Z,30.48
2016-05-19T08:12:08.707Z,29.43
2016-05-19T08:13:01.991Z,29
2016-05-19T08:13:49.104Z,28.67
2016-05-19T08:14:49.356Z,28.12
2016-05-19T08:15:49.359Z,27.66
2016-05-19T08:16:49.190Z,27.35
2016-05-19T08:18:08.459Z,26.82
2016-05-19T08:18:49.429Z,26.59
2016-05-19T08:20:15.151Z,26.11
2016-05-19T08:20:50.809Z,25.99
2016-05-19T08:21:49.547Z,25.52
2016-05-19T08:23:02.300Z,24.75
2016-05-19T08:23:49.786Z,24.4
2016-05-19T08:25:08.883Z,24.06
2016-05-19T08:25:49.650Z,23.88
2016-05-19T08:26:49.669Z,23.48
2016-05-19T08:27:49.735Z,23.33
2016-05-19T08:28:49.753Z,23.33
2016-05-19T08:30:02.522Z,22.96
2016-05-19T08:31:02.555Z,23.02
2016-05-19T08:31:49.855Z,22.96
2016-05-19T08:32:49.858Z,23.08
2016-05-19T08:34:21.188Z,23.28
2016-05-19T08:34:49.770Z,23.28
2016-05-19T08:35:49.991Z,23.37
2016-05-19T08:36:57.760Z,23.39
2016-05-19T08:38:09.230Z,23.2
2016-05-19T08:38:50.015Z,23.2
2016-05-19T08:40:15.767Z,23.28
2016-05-19T08:40:50.238Z,23.13
2016-05-19T08:42:59.541Z,23.51
2016-05-19T08:43:59.700Z,23.59
2016-05-19T08:44:59.749Z,23.56
2016-05-19T08:46:12.487Z,23.63
2016-05-19T08:47:01.207Z,23.7
2016-05-19T08:47:59.679Z,23.77
2016-05-19T08:48:59.853Z,23.74
2016-05-19T08:50:25.325Z,23.74
2016-05-19T08:50:59.922Z,23.76
2016-05-19T08:51:59.784Z,23.77
2016-05-19T08:52:59.786Z,23.64
2016-05-19T08:54:00.789Z,23.62
2016-05-19T08:55:01.433Z,23.51
2016-05-19T08:56:12.451Z,23.29
2016-05-19T08:57:09.203Z,23.32
2016-05-19T08:58:00.081Z,23.21
2016-05-19T08:59:19.302Z,23.28
2016-05-19T09:00:31.414Z,23.32
2016-05-19T09:01:31.949Z,23.25
2016-05-19T09:02:00.186Z,23.28
2016-05-19T09:03:00.236Z,23.14
2016-05-19T09:04:00.410Z,23.08
2016-05-19T09:05:12.944Z,23.08
2016-05-19T09:06:00.431Z,22.99
2016-05-19T09:07:19.543Z,22.88
2016-05-19T09:08:17.123Z,22.65
2016-05-19T09:09:17.141Z,22.77
2016-05-19T09:10:16.551Z,22.65
2016-05-19T09:11:16.351Z,22.51
2016-05-19T09:12:29.290Z,22.7
2016-05-19T09:13:16.388Z,22.71
2016-05-19T09:14:42.173Z,22.49
2016-05-19T09:15:16.361Z,22.34
2016-05-19T09:16:16.458Z,22.31
2016-05-19T09:17:18.038Z,22.33
2016-05-19T09:18:16.635Z,22.26
2016-05-19T09:19:35.622Z,22.33
2016-05-19T09:20:16.579Z,22.34
2016-05-19T09:21:47.958Z,22.3
2016-05-19T09:22:16.630Z,22.23
2016-05-19T09:23:16.539Z,22.3
2016-05-19T09:24:18.198Z,22.26
2016-05-19T09:25:16.717Z,22.33
2016-05-19T09:26:29.328Z,22.47
2016-05-19T09:27:16.769Z,22.68
2016-05-19T09:28:16.911Z,22.7
2016-05-19T09:29:16.820Z,22.89
2016-05-19T09:30:36.105Z,22.67
2016-05-19T09:31:16.873Z,22.68
2016-05-19T09:32:48.175Z,22.78
2016-05-19T09:33:16.941Z,22.68
2016-05-19T09:35:18.383Z,22.52
2016-05-19T09:36:17.027Z,22.65
2016-05-19T09:37:29.841Z,22.61
2016-05-19T09:38:17.502Z,22.71
2016-05-19T09:39:42.772Z,22.88
2016-05-19T09:40:18.663Z,22.88
2016-05-19T09:41:17.150Z,22.83
2016-05-19T09:42:17.168Z,22.8
2016-05-19T09:43:17.062Z,22.8
2016-05-19T09:44:17.205Z,22.8
2016-05-19T09:45:29.973Z,22.73
2016-05-19T09:46:17.132Z,22.74
2016-05-19T09:47:17.307Z,22.63
2016-05-19T09:48:17.341Z,22.8
2016-05-19T09:49:20.390Z,22.84
2016-05-19T09:50:36.581Z,22.83
2016-05-19T09:51:17.396Z,22.91
2016-05-19T09:52:17.476Z,22.86
2016-05-19T09:53:17.448Z,22.77
2016-05-19T09:54:30.217Z,22.86
2016-05-19T09:55:30.250Z,22.65
2016-05-19T09:56:17.550Z,22.53
2016-05-19T09:57:17.568Z,22.51
2016-05-19T09:58:17.586Z,22.51
2016-05-19T09:59:17.636Z,22.62
2016-05-19T10:00:17.639Z,22.55
2016-05-19T10:01:17.766Z,22.71
2016-05-19T10:02:17.706Z,22.58
2016-05-19T10:03:30.491Z,22.51
2016-05-19T10:04:17.744Z,22.49
2016-05-19T10:05:43.464Z,22.65
2016-05-19T10:06:17.811Z,22.67
2016-05-19T10:07:17.689Z,22.81
2016-05-19T10:08:17.848Z,22.96
2016-05-19T10:09:17.897Z,22.84
2016-05-19T10:10:30.478Z,22.78
2016-05-19T10:11:30.840Z,22.93
2016-05-19T10:12:37.171Z,22.91
2016-05-19T10:13:18.002Z,23.06
2016-05-19T10:14:18.067Z,22.98
2016-05-19T10:15:30.616Z,23.04
2016-05-19T10:16:18.057Z,22.84
2016-05-19T10:17:18.107Z,22.91
2016-05-19T10:18:18.140Z,22.96
2016-05-19T10:19:30.627Z,22.98
2016-05-19T10:20:30.927Z,23.17
2016-05-19T10:21:37.415Z,23.26
2016-05-19T10:22:21.401Z,23.32
2016-05-19T10:23:21.435Z,23.08
2016-05-19T10:24:24.484Z,23.02
2016-05-19T10:25:52.756Z,23.04
2016-05-19T10:26:36.631Z,23.11
2016-05-19T10:27:36.884Z,23.2
2016-05-19T10:28:55.998Z,22.99
2016-05-19T10:29:36.811Z,23.07
2016-05-19T10:30:36.673Z,23.13
2016-05-19T10:31:56.147Z,23.04
2016-05-19T10:32:39.772Z,23.06
2016-05-19T10:33:36.915Z,23.25
2016-05-19T10:34:38.403Z,23.28
2016-05-19T10:35:49.736Z,23.67
2016-05-19T10:36:49.753Z,23.69
2016-05-19T10:38:02.413Z,23.74
2016-05-19T10:38:37.131Z,23.88
2016-05-19T10:40:52.046Z,23.99
2016-05-19T10:41:52.236Z,23.96
2016-05-19T10:42:52.286Z,24.01
2016-05-19T10:43:52.132Z,23.94
2016-05-19T10:45:11.541Z,24.24
2016-05-19T10:45:52.341Z,24.21
2016-05-19T10:47:23.750Z,24.56
2016-05-19T10:47:52.408Z,24.63
2016-05-19T10:48:52.474Z,25
2016-05-19T10:50:07.585Z,25.19
2016-05-19T10:51:07.635Z,25.41
2016-05-19T10:52:41.966Z,25.56
2016-05-19T10:53:20.719Z,25.58
2016-05-19T10:55:29.709Z,25.91
2016-05-19T10:56:29.821Z,26.07
2016-05-19T10:57:29.761Z,26.23
2016-05-19T10:58:42.544Z,26.55
2016-05-19T10:59:29.845Z,26.64
2016-05-19T11:00:55.522Z,26.89
2016-05-19T11:01:31.303Z,26.83
2016-05-19T11:02:29.775Z,26.88
2016-05-19T11:03:29.948Z,26.85
2016-05-19T11:04:42.717Z,26.41
2016-05-19T11:05:30.016Z,26.37
2016-05-19T11:06:55.694Z,26.55
2016-05-19T11:07:39.772Z,26.68
2016-05-19T11:08:39.744Z,26.89
2016-05-19T11:09:39.715Z,27.26
2016-05-19T11:10:39.749Z,27.38
2016-05-19T11:11:39.829Z,27.5
2016-05-19T11:12:52.539Z,27.79
2016-05-19T11:13:39.836Z,27.81
2016-05-19T11:14:39.713Z,27.79
2016-05-19T11:15:39.872Z,27.75
2016-05-19T11:16:39.921Z,27.82
2016-05-19T11:17:39.940Z,27.79
2016-05-19T11:18:39.988Z,27.53
2016-05-19T11:19:40.007Z,27.1
2016-05-19T11:20:40.088Z,26.53
2016-05-19T11:21:52.656Z,25.62
2016-05-19T11:22:40.109Z,25.41
2016-05-19T11:23:59.162Z,25.12
2016-05-19T11:24:40.146Z,25.03
2016-05-19T11:25:41.633Z,25.04
2016-05-19T11:26:40.229Z,25.18
2016-05-19T11:27:52.970Z,25.4
2016-05-19T11:28:40.298Z,25.66
2016-05-19T11:29:40.410Z,25.66
2016-05-19T11:30:53.071Z,25.89
2016-05-19T11:31:46.683Z,26.18
2016-05-19T11:33:42.967Z,26.23
2016-05-19T11:34:21.360Z,26.04
2016-05-19T11:34:55.675Z,25.95
2016-05-19T11:35:55.709Z,26.06
2016-05-19T11:36:55.759Z,26.07
2016-05-19T11:37:55.589Z,26.31
2016-05-19T11:38:55.483Z,26.41
2016-05-19T11:39:55.860Z,26.55
2016-05-19T11:40:55.675Z,26.42
2016-05-19T11:41:55.945Z,26.33
2016-05-19T11:42:55.916Z,26.24
2016-05-19T11:43:55.949Z,26.06
2016-05-19T11:45:15.015Z,26.19
2016-05-19T11:45:55.971Z,26.08
2016-05-19T11:47:27.340Z,26.37
2016-05-19T11:48:05.616Z,26.36
2016-05-19T11:49:05.659Z,26.23
2016-05-19T11:50:18.328Z,26.07
2016-05-19T11:51:05.620Z,25.83
2016-05-19T11:52:05.828Z,25.61
2016-05-19T11:53:07.157Z,25.34
2016-05-19T11:54:05.784Z,25.19
2016-05-19T11:55:06.004Z,25.3
2016-05-19T11:56:18.755Z,25.41
2016-05-19T11:57:06.108Z,25.54
2016-05-19T11:58:18.835Z,25.89
2016-05-19T11:59:06.124Z,26.16
2016-05-19T12:00:31.836Z,26.53
2016-05-19T12:01:06.188Z,26.64
2016-05-19T12:02:06.240Z,26.45
2016-05-19T12:03:06.259Z,25.95
2016-05-19T12:04:18.904Z,25.86
2016-05-19T12:05:06.315Z,25.39
2016-05-19T12:06:32.023Z,24.79
2016-05-19T12:07:06.386Z,24.55
2016-05-19T12:09:47.549Z,25.18
2016-05-19T12:10:21.880Z,24.93
2016-05-19T12:11:21.931Z,24.61
2016-05-19T12:12:21.981Z,24.38
2016-05-19T12:13:34.718Z,24.4
2016-05-19T12:14:34.768Z,24.36
2016-05-19T12:15:49.634Z,24.38
2016-05-19T12:16:22.072Z,24.48
2016-05-19T12:17:53.233Z,24.38
2016-05-19T12:18:34.936Z,24.47
2016-05-19T12:19:21.986Z,24.47
2016-05-19T12:20:22.191Z,24.61
2016-05-19T12:21:34.943Z,24.75
2016-05-19T12:22:47.931Z,25.03
2016-05-19T12:23:41.480Z,25.25
2016-05-19T12:24:57.017Z,25.29
2016-05-19T12:25:25.751Z,25.37
2016-05-19T12:26:25.598Z,25.48
2016-05-19T12:27:25.820Z,25.73
2016-05-19T12:28:30.338Z,25.99
2016-05-19T12:29:25.887Z,26.23
2016-05-19T12:30:25.906Z,26.22
2016-05-19T12:31:25.924Z,26.23
2016-05-19T12:32:25.943Z,26.33
2016-05-19T12:33:27.336Z,26.39
2016-05-19T12:34:25.854Z,26.46
2016-05-19T12:35:26.059Z,26.49
2016-05-19T12:36:25.922Z,26.46
2016-05-19T12:37:26.081Z,26.52
2016-05-19T12:38:26.209Z,26.39
2016-05-19T12:39:26.414Z,26.26
2016-05-19T12:40:26.198Z,26.24
2016-05-19T12:41:32.483Z,26.39
2016-05-19T12:42:26.236Z,26.59
2016-05-19T12:44:37.475Z,26.66
2016-05-19T12:45:36.133Z,26.59
2016-05-19T12:46:35.980Z,26.33
2016-05-19T12:47:48.920Z,26.23
2016-05-19T12:48:36.204Z,26.19
2016-05-19T12:49:36.238Z,25.91
2016-05-19T12:50:36.257Z,25.39
2016-05-19T12:52:01.793Z,25.3
2016-05-19T12:52:36.308Z,25.4
2016-05-19T12:53:36.358Z,25.58
2016-05-19T12:54:49.111Z,25.55
2016-05-19T12:55:36.379Z,25.48
2016-05-19T12:57:46.072Z,25.29
2016-05-19T12:58:46.059Z,25.16
2016-05-19T12:59:46.094Z,24.86
2016-05-19T13:01:05.349Z,25
2016-05-19T13:01:46.146Z,25.04
2016-05-19T13:02:46.007Z,25
2016-05-19T13:03:46.198Z,25.18
2016-05-19T13:04:46.278Z,25.25
2016-05-19T13:05:46.265Z,25.33
2016-05-19T13:06:59.037Z,25.44
2016-05-19T13:07:49.381Z,25.58
2016-05-19T13:08:49.243Z,25.54
2016-05-19T13:09:46.183Z,25.59
2016-05-19T13:11:05.641Z,25.61
2016-05-19T13:11:46.375Z,25.66
2016-05-19T13:13:49.037Z,25.55
2016-05-19T13:14:01.759Z,25.59
2016-05-19T13:15:01.824Z,25.59
2016-05-19T13:16:01.794Z,25.58
2016-05-19T13:17:21.047Z,25.68